createdAt,value
2023-03-16T00:00:04.610Z,-.56
2023-03-16T00:00:34.821Z,-.56
2023-03-16T00:01:08.794Z,-.56
2023-03-16T00:01:37.811Z,-.67
2023-03-16T00:02:09.820Z,-.72
2023-03-16T00:02:35.667Z,-.72
2023-03-16T00:02:57.746Z,-.72
2023-03-16T00:03:29.763Z,-.72
2023-03-16T00:04:01.734Z,-.72
2023-03-16T00:04:34.229Z,-.72
2023-03-16T00:05:06.151Z,-.72
2023-03-16T00:06:56.665Z,-.67
2023-03-16T00:07:16.194Z,-.67
2023-03-16T00:07:35.532Z,-.67
2023-03-16T00:08:01.742Z,-.67
2023-03-16T00:08:35.361Z,-.67
2023-03-16T00:09:05.756Z,-.67
2023-03-16T00:09:34.610Z,-.67
2023-03-16T00:09:53.809Z,-.72
2023-03-16T00:10:27.201Z,-.72
2023-03-16T00:10:57.701Z,-.72
2023-03-16T00:11:29.718Z,-.72
2023-03-16T00:12:01.709Z,-.83
2023-03-16T00:12:34.277Z,-.83
2023-03-16T00:13:05.680Z,-.83
2023-03-16T00:13:35.742Z,-.83
2023-03-16T00:13:53.745Z,-.83
2023-03-16T00:14:25.753Z,-.83
2023-03-16T00:14:57.918Z,-.83
2023-03-16T00:15:30.448Z,-.94
2023-03-16T00:16:03.765Z,-.94
2023-03-16T00:16:34.416Z,-.94
2023-03-16T00:17:05.699Z,-.94
2023-03-16T00:17:35.247Z,-.94
2023-03-16T00:17:53.743Z,-.94
2023-03-16T00:18:25.720Z,-.94
2023-03-16T00:18:42.605Z,-.94
2023-03-16T00:19:14.068Z,-.94
2023-03-16T00:20:35.360Z,-1.05
2023-03-16T00:21:05.714Z,-1.05
2023-03-16T00:21:35.054Z,-1.05
2023-03-16T00:21:53.765Z,-1.05
2023-03-16T00:22:25.717Z,-1.05
2023-03-16T00:22:42.619Z,-1.05
2023-03-16T00:23:13.737Z,-1.05
2023-03-16T00:23:36.206Z,-1.05
2023-03-16T00:24:01.826Z,-1.16
2023-03-16T00:24:34.501Z,-1.16
2023-03-16T00:25:06.006Z,-1.16
2023-03-16T00:25:34.639Z,-1.16
2023-03-16T00:25:54.041Z,-1.16
2023-03-16T00:26:25.706Z,-1.16
2023-03-16T00:26:58.713Z,-1.16
2023-03-16T00:27:29.694Z,-1.16
2023-03-16T00:28:01.756Z,-1.16
2023-03-16T00:28:34.518Z,-1.16
2023-03-16T00:29:05.774Z,-1.16
2023-03-16T00:29:34.898Z,-1.16
2023-03-16T00:29:53.786Z,-1.16
2023-03-16T00:30:26.572Z,-1.05
2023-03-16T00:30:58.000Z,-1.05
2023-03-16T00:31:29.782Z,-.94
2023-03-16T00:32:01.851Z,-.94
2023-03-16T00:32:34.443Z,-.94
2023-03-16T00:33:05.823Z,-.94
2023-03-16T00:33:34.656Z,-.94
2023-03-16T00:33:53.778Z,-.94
2023-03-16T00:34:25.717Z,-.94
2023-03-16T00:34:57.898Z,-.94
2023-03-16T00:35:30.180Z,-.94
2023-03-16T00:36:01.860Z,-1.08
2023-03-16T00:36:34.592Z,-1.08
2023-03-16T00:37:05.824Z,-1.08
2023-03-16T00:37:34.634Z,-1.08
2023-03-16T00:37:53.854Z,-1.08
2023-03-16T00:38:25.692Z,-1.08
2023-03-16T00:38:57.917Z,-1.08
2023-03-16T00:39:29.700Z,-1.08
2023-03-16T00:40:04.142Z,-1.08
2023-03-16T00:40:34.660Z,-1.08
2023-03-16T00:41:05.761Z,-1.08
2023-03-16T00:41:34.588Z,-1.08
2023-03-16T00:41:53.760Z,-1.08
2023-03-16T00:42:25.688Z,-1.08
2023-03-16T00:42:57.904Z,-1.08
2023-03-16T00:43:29.721Z,-1.08
2023-03-16T00:44:01.712Z,-1.08
2023-03-16T00:44:34.512Z,-1.08
2023-03-16T00:45:06.205Z,-1.08
2023-03-16T00:45:34.673Z,-1.08
2023-03-16T00:45:54.157Z,-1.08
2023-03-16T00:46:26.430Z,-1.23
2023-03-16T00:46:57.747Z,-1.23
2023-03-16T00:47:29.756Z,-1.23
2023-03-16T00:48:01.756Z,-1.23
2023-03-16T00:48:34.357Z,-1.35
2023-03-16T00:49:05.855Z,-1.31
2023-03-16T00:49:35.240Z,-1.46
2023-03-16T00:49:53.747Z,-1.46
2023-03-16T00:50:26.242Z,-1.31
2023-03-16T00:50:57.935Z,-1.31
2023-03-16T00:51:29.706Z,-1.31
2023-03-16T00:52:01.744Z,-1.31
2023-03-16T00:52:34.299Z,-1.35
2023-03-16T00:53:05.749Z,-1.35
2023-03-16T00:53:34.609Z,-1.35
2023-03-16T00:53:53.776Z,-1.23
2023-03-16T00:54:25.721Z,-1.12
2023-03-16T00:54:57.914Z,-1.28
2023-03-16T00:55:30.011Z,-1.17
2023-03-16T00:56:02.751Z,-1.17
2023-03-16T00:56:34.265Z,-1.12
2023-03-16T00:57:05.728Z,-1.28
2023-03-16T00:57:34.884Z,-1.28
2023-03-16T00:57:53.781Z,-1.17
2023-03-16T00:58:25.718Z,-1.17
2023-03-16T00:58:58.076Z,-1.32
2023-03-16T00:59:29.816Z,-1.21
2023-03-16T01:00:04.140Z,-1.21
2023-03-16T01:00:35.793Z,-1.21
2023-03-16T01:01:05.763Z,-1.21
2023-03-16T01:01:34.736Z,-1.21
2023-03-16T01:01:53.789Z,-1.21
2023-03-16T01:02:26.634Z,-1.21
2023-03-16T01:02:57.833Z,-1.21
2023-03-16T01:03:29.883Z,-1.21
2023-03-16T01:04:01.785Z,-1.21
2023-03-16T01:04:34.390Z,-1.21
2023-03-16T01:05:05.995Z,-1.21
2023-03-16T01:05:35.926Z,-1.21
2023-03-16T01:05:53.975Z,-1.21
2023-03-16T01:06:25.733Z,-1.21
2023-03-16T01:06:57.979Z,-1.21
2023-03-16T01:07:29.706Z,-1.21
2023-03-16T01:08:01.783Z,-1.32
2023-03-16T01:08:34.589Z,-1.43
2023-03-16T01:09:05.808Z,-1.48
2023-03-16T01:09:34.585Z,-1.33
2023-03-16T01:09:53.794Z,-1.33
2023-03-16T01:10:26.453Z,-1.43
2023-03-16T01:10:42.345Z,-1.43
2023-03-16T01:11:14.052Z,-1.54
2023-03-16T01:11:35.563Z,-1.54
2023-03-16T01:12:02.564Z,-1.51
2023-03-16T01:12:34.563Z,-1.51
2023-03-16T01:13:05.749Z,-1.51
2023-03-16T01:13:34.615Z,-1.51
2023-03-16T01:13:53.810Z,-1.51
2023-03-16T01:14:25.731Z,-1.51
2023-03-16T01:14:57.964Z,-1.51
2023-03-16T01:15:30.250Z,-1.51
2023-03-16T01:16:03.064Z,-1.51
2023-03-16T01:16:34.345Z,-1.51
2023-03-16T01:17:05.754Z,-1.51
2023-03-16T01:17:34.659Z,-1.51
2023-03-16T01:17:53.779Z,-1.51
2023-03-16T01:18:26.573Z,-1.61
2023-03-16T01:18:57.762Z,-1.61
2023-03-16T01:19:29.781Z,-1.66
2023-03-16T01:20:03.785Z,-1.77
2023-03-16T01:20:34.362Z,-1.62
2023-03-16T01:21:05.740Z,-1.62
2023-03-16T01:21:36.383Z,-1.72
2023-03-16T01:21:53.788Z,-1.72
2023-03-16T01:22:25.742Z,-1.72
2023-03-16T01:22:57.956Z,-1.72
2023-03-16T01:23:29.720Z,-1.83
2023-03-16T01:24:01.851Z,-1.83
2023-03-16T01:24:34.304Z,-1.83
2023-03-16T01:25:06.058Z,-1.83
2023-03-16T01:25:34.646Z,-1.83
2023-03-16T01:25:54.084Z,-1.83
2023-03-16T01:26:25.735Z,-1.83
2023-03-16T01:26:57.925Z,-1.68
2023-03-16T01:27:29.774Z,-1.68
2023-03-16T01:28:02.571Z,-1.79
2023-03-16T01:28:34.426Z,-1.79
2023-03-16T01:29:05.772Z,-1.79
2023-03-16T01:29:35.149Z,-1.79
2023-03-16T01:29:53.728Z,-1.84
2023-03-16T01:30:26.532Z,-1.84
2023-03-16T01:30:58.029Z,-1.84
2023-03-16T01:31:29.859Z,-1.84
2023-03-16T01:32:01.794Z,-1.84
2023-03-16T01:32:34.660Z,-1.84
2023-03-16T01:33:05.844Z,-1.84
2023-03-16T01:33:34.700Z,-1.84
2023-03-16T01:33:53.811Z,-1.95
2023-03-16T01:34:26.611Z,-1.80
2023-03-16T01:34:57.749Z,-1.80
2023-03-16T01:35:30.026Z,-1.80
2023-03-16T01:36:01.867Z,-1.80
2023-03-16T01:36:34.456Z,-1.80
2023-03-16T01:37:05.752Z,-1.80
2023-03-16T01:37:35.309Z,-1.80
2023-03-16T01:37:53.832Z,-1.80
2023-03-16T01:38:25.730Z,-1.80
2023-03-16T01:38:57.953Z,-1.80
2023-03-16T01:39:29.733Z,-1.80
2023-03-16T01:40:03.963Z,-1.92
2023-03-16T01:40:34.708Z,-1.92
2023-03-16T01:41:05.948Z,-1.92
2023-03-16T01:41:34.790Z,-1.92
2023-03-16T01:41:53.839Z,-1.92
2023-03-16T01:42:26.585Z,-1.92
2023-03-16T01:42:42.390Z,-1.92
2023-03-16T01:43:14.533Z,-1.92
2023-03-16T01:43:35.812Z,-1.92
2023-03-16T01:44:03.646Z,-1.92
2023-03-16T01:44:35.143Z,-1.92
2023-03-16T01:45:06.624Z,-1.92
2023-03-16T01:45:35.010Z,-1.92
2023-03-16T01:45:54.434Z,-1.92
2023-03-16T01:46:26.032Z,-1.92
2023-03-16T01:46:42.454Z,-1.92
2023-03-16T01:47:14.806Z,-1.92
2023-03-16T01:47:35.695Z,-1.92
2023-03-16T01:48:01.935Z,-1.92
2023-03-16T01:48:34.666Z,-1.92
2023-03-16T01:49:05.782Z,-1.92
2023-03-16T01:49:34.738Z,-1.92
2023-03-16T01:49:53.852Z,-2.03
2023-03-16T01:50:27.482Z,-2.03
2023-03-16T01:50:58.798Z,-2.03
2023-03-16T01:51:29.869Z,-2.14
2023-03-16T01:52:01.824Z,-2.14
2023-03-16T01:52:34.694Z,-2.14
2023-03-16T01:53:05.812Z,-2.14
2023-03-16T01:53:35.251Z,-2.14
2023-03-16T01:53:53.836Z,-2.19
2023-03-16T01:54:25.775Z,-2.19
2023-03-16T01:54:57.987Z,-2.30
2023-03-16T01:55:30.062Z,-2.14
2023-03-16T01:56:01.788Z,-2.14
2023-03-16T01:56:34.470Z,-2.26
2023-03-16T01:57:05.834Z,-2.26
2023-03-16T01:57:34.782Z,-2.26
2023-03-16T01:57:53.891Z,-2.26
2023-03-16T01:58:25.786Z,-2.26
2023-03-16T01:58:42.364Z,-2.26
2023-03-16T01:59:13.794Z,-2.26
2023-03-16T01:59:35.596Z,-2.26
2023-03-16T02:00:04.584Z,-2.26
2023-03-16T02:00:34.975Z,-2.26
2023-03-16T02:01:05.877Z,-2.11
2023-03-16T02:01:35.124Z,-2.11
2023-03-16T02:01:53.836Z,-2.11
2023-03-16T02:02:25.837Z,-2.11
2023-03-16T02:02:42.350Z,-2.11
2023-03-16T02:03:14.668Z,-2.11
2023-03-16T02:03:35.564Z,-2.11
2023-03-16T02:04:01.847Z,-2.11
2023-03-16T02:04:34.875Z,-2.11
2023-03-16T02:05:06.106Z,-2.11
2023-03-16T02:05:34.822Z,-2.11
2023-03-16T02:05:54.119Z,-1.99
2023-03-16T02:06:26.753Z,-1.99
2023-03-16T02:06:57.933Z,-1.88
2023-03-16T02:07:29.849Z,-1.83
2023-03-16T02:08:01.843Z,-1.99
2023-03-16T02:08:34.472Z,-1.99
2023-03-16T02:09:05.809Z,-1.99
2023-03-16T02:09:35.429Z,-1.99
2023-03-16T02:09:53.867Z,-1.99
2023-03-16T02:10:26.512Z,-1.88
2023-03-16T02:10:42.371Z,-1.88
2023-03-16T02:11:13.851Z,-1.77
2023-03-16T02:11:35.546Z,-1.77
2023-03-16T02:12:01.866Z,-1.65
2023-03-16T02:12:34.390Z,-1.54
2023-03-16T02:13:05.819Z,-1.54
2023-03-16T02:13:34.815Z,-1.69
2023-03-16T02:13:53.868Z,-1.65
2023-03-16T02:14:25.866Z,-1.65
2023-03-16T02:14:42.371Z,-1.65
2023-03-16T02:15:14.549Z,-1.54
2023-03-16T02:15:35.631Z,-1.68
2023-03-16T02:16:03.382Z,-1.68
2023-03-16T02:16:34.820Z,-1.68
2023-03-16T02:17:05.863Z,-1.57
2023-03-16T02:17:35.061Z,-1.57
2023-03-16T02:17:53.871Z,-1.57
2023-03-16T02:18:25.791Z,-1.62
2023-03-16T02:18:42.341Z,-1.62
2023-03-16T02:19:14.716Z,-1.62
2023-03-16T02:19:35.543Z,-1.62
2023-03-16T02:20:03.991Z,-1.62
2023-03-16T02:20:34.451Z,-1.62
2023-03-16T02:21:05.846Z,-1.62
2023-03-16T02:21:34.847Z,-1.62
2023-03-16T02:21:53.844Z,-1.62
2023-03-16T02:22:26.628Z,-1.72
2023-03-16T02:22:57.885Z,-1.72
2023-03-16T02:23:29.814Z,-1.72
2023-03-16T02:24:01.833Z,-1.83
2023-03-16T02:24:34.778Z,-1.83
2023-03-16T02:25:06.166Z,-1.83
2023-03-16T02:25:35.521Z,-1.83
2023-03-16T02:25:54.103Z,-1.83
2023-03-16T02:26:25.806Z,-1.83
2023-03-16T02:26:42.335Z,-1.83
2023-03-16T02:27:13.849Z,-1.83
2023-03-16T02:27:35.519Z,-1.83
2023-03-16T02:28:01.778Z,-1.94
2023-03-16T02:28:34.385Z,-1.94
2023-03-16T02:29:05.826Z,-1.94
2023-03-16T02:29:34.869Z,-1.94
2023-03-16T02:29:53.858Z,-1.79
2023-03-16T02:30:26.660Z,-1.84
2023-03-16T02:30:42.494Z,-1.84
2023-03-16T02:31:13.871Z,-1.84
2023-03-16T02:31:35.986Z,-1.84
2023-03-16T02:32:02.661Z,-1.84
2023-03-16T02:32:34.539Z,-1.95
2023-03-16T02:33:05.972Z,-1.95
2023-03-16T02:33:34.822Z,-1.95
2023-03-16T02:33:53.843Z,-1.95
2023-03-16T02:34:25.791Z,-1.95
2023-03-16T02:34:42.328Z,-1.95
2023-03-16T02:35:16.263Z,-1.95
2023-03-16T02:35:35.532Z,-1.95
2023-03-16T02:36:01.884Z,-1.95
2023-03-16T02:36:34.371Z,-1.95
2023-03-16T02:37:05.807Z,-1.95
2023-03-16T02:37:34.829Z,-1.95
2023-03-16T02:37:53.879Z,-1.95
2023-03-16T02:38:25.813Z,-1.95
2023-03-16T02:38:42.344Z,-1.95
2023-03-16T02:39:13.799Z,-1.80
2023-03-16T02:39:35.509Z,-1.80
2023-03-16T02:40:03.427Z,-1.95
2023-03-16T02:40:34.377Z,-1.80
2023-03-16T02:41:05.808Z,-1.92
2023-03-16T02:41:34.866Z,-1.92
2023-03-16T02:41:53.787Z,-1.92
2023-03-16T02:42:25.757Z,-2.06
2023-03-16T02:42:42.367Z,-2.06
2023-03-16T02:43:14.619Z,-2.03
2023-03-16T02:43:35.497Z,-2.14
2023-03-16T02:44:01.821Z,-2.14
2023-03-16T02:44:34.674Z,-2.19
2023-03-16T02:45:06.294Z,-2.19
2023-03-16T02:45:34.845Z,-2.19
2023-03-16T02:45:54.195Z,-2.30
2023-03-16T02:46:26.687Z,-2.30
2023-03-16T02:46:57.951Z,-2.42
2023-03-16T02:47:29.789Z,-2.42
2023-03-16T02:48:01.904Z,-2.42
2023-03-16T02:48:34.441Z,-2.42
2023-03-16T02:49:05.824Z,-2.42
2023-03-16T02:49:35.181Z,-2.42
2023-03-16T02:49:53.844Z,-2.42
2023-03-16T02:50:26.260Z,-2.52
2023-03-16T02:50:42.356Z,-2.52
2023-03-16T02:51:13.880Z,-2.52
2023-03-16T02:51:35.519Z,-2.52
2023-03-16T02:52:01.834Z,-2.37
2023-03-16T02:52:34.418Z,-2.37
2023-03-16T02:53:05.796Z,-2.37
2023-03-16T02:53:34.843Z,-2.37
2023-03-16T02:53:53.794Z,-2.37
2023-03-16T02:54:25.800Z,-2.37
2023-03-16T02:54:42.357Z,-2.37
2023-03-16T02:55:14.083Z,-2.48
2023-03-16T02:55:35.484Z,-2.48
2023-03-16T02:56:02.613Z,-2.48
2023-03-16T02:56:34.402Z,-2.48
2023-03-16T02:57:05.909Z,-2.48
2023-03-16T02:57:34.798Z,-2.53
2023-03-16T02:57:53.793Z,-2.53
2023-03-16T02:58:25.781Z,-2.53
2023-03-16T02:58:42.356Z,-2.53
2023-03-16T02:59:14.582Z,-2.64
2023-03-16T02:59:35.536Z,-2.64
2023-03-16T03:00:04.363Z,-2.64
2023-03-16T03:00:34.409Z,-2.64
2023-03-16T03:01:05.793Z,-2.49
2023-03-16T03:01:34.896Z,-2.49
2023-03-16T03:01:53.877Z,-2.38
2023-03-16T03:02:27.359Z,-2.38
2023-03-16T03:02:57.911Z,-2.38
2023-03-16T03:03:29.909Z,-2.38
2023-03-16T03:04:01.864Z,-2.38
2023-03-16T03:04:34.319Z,-2.38
2023-03-16T03:05:06.153Z,-2.33
2023-03-16T03:05:35.397Z,-2.33
2023-03-16T03:05:54.082Z,-2.33
2023-03-16T03:06:25.791Z,-2.33
2023-03-16T03:06:42.406Z,-2.33
2023-03-16T03:07:13.815Z,-2.33
2023-03-16T03:07:35.497Z,-2.33
2023-03-16T03:08:01.829Z,-2.33
2023-03-16T03:08:34.356Z,-2.33
2023-03-16T03:09:05.805Z,-2.33
2023-03-16T03:09:34.875Z,-2.38
2023-03-16T03:09:53.837Z,-2.38
2023-03-16T03:10:26.792Z,-2.38
2023-03-16T03:10:42.420Z,-2.24
2023-03-16T03:11:13.842Z,-2.24
2023-03-16T03:11:35.521Z,-2.38
2023-03-16T03:12:02.549Z,-2.24
2023-03-16T03:12:34.405Z,-2.24
2023-03-16T03:13:05.841Z,-2.24
2023-03-16T03:13:34.868Z,-2.24
2023-03-16T03:13:53.874Z,-2.24
2023-03-16T03:14:25.930Z,-2.19
2023-03-16T03:14:42.458Z,-2.19
2023-03-16T03:15:15.117Z,-2.19
2023-03-16T03:15:35.839Z,-2.08
2023-03-16T03:16:03.177Z,-2.08
2023-03-16T03:16:34.885Z,-1.97
2023-03-16T03:17:05.843Z,-1.97
2023-03-16T03:17:34.920Z,-1.97
2023-03-16T03:17:53.876Z,-1.85
2023-03-16T03:18:26.563Z,-1.85
2023-03-16T03:18:57.971Z,-1.85
2023-03-16T03:19:29.857Z,-1.85
2023-03-16T03:20:03.320Z,-1.85
2023-03-16T03:20:34.470Z,-1.74
2023-03-16T03:21:05.858Z,-1.74
2023-03-16T03:21:35.601Z,-1.74
2023-03-16T03:21:53.836Z,-1.83
2023-03-16T03:22:25.820Z,-1.83
2023-03-16T03:22:42.371Z,-1.83
2023-03-16T03:23:13.826Z,-1.72
2023-03-16T03:23:35.528Z,-1.72
2023-03-16T03:24:01.829Z,-1.72
2023-03-16T03:24:34.768Z,-1.62
2023-03-16T03:25:06.142Z,-1.62
2023-03-16T03:25:35.073Z,-1.62
2023-03-16T03:25:54.419Z,-1.50
2023-03-16T03:26:25.856Z,-1.50
2023-03-16T03:26:42.413Z,-1.65
2023-03-16T03:27:13.820Z,-1.65
2023-03-16T03:27:35.625Z,-1.65
2023-03-16T03:28:02.974Z,-1.54
2023-03-16T03:28:34.451Z,-1.54
2023-03-16T03:29:05.866Z,-1.54
2023-03-16T03:29:34.945Z,-1.54
2023-03-16T03:29:53.834Z,-1.54
2023-03-16T03:30:26.558Z,-1.65
2023-03-16T03:30:42.422Z,-1.65
2023-03-16T03:31:14.860Z,-1.54
2023-03-16T03:31:35.530Z,-1.54
2023-03-16T03:32:01.820Z,-1.54
2023-03-16T03:32:34.452Z,-1.54
2023-03-16T03:33:06.318Z,-1.54
2023-03-16T03:33:34.971Z,-1.54
2023-03-16T03:33:53.856Z,-1.54
2023-03-16T03:34:26.520Z,-1.54
2023-03-16T03:34:57.934Z,-1.68
2023-03-16T03:35:30.174Z,-1.68
2023-03-16T03:36:01.953Z,-1.68
2023-03-16T03:36:34.396Z,-1.68
2023-03-16T03:37:05.867Z,-1.68
2023-03-16T03:37:34.976Z,-1.68
2023-03-16T03:37:53.859Z,-1.68
2023-03-16T03:38:25.859Z,-1.68
2023-03-16T03:38:42.375Z,-1.68
2023-03-16T03:39:13.858Z,-1.68
2023-03-16T03:39:35.520Z,-1.68
2023-03-16T03:40:03.447Z,-1.68
2023-03-16T03:40:34.413Z,-1.68
2023-03-16T03:41:05.834Z,-1.68
2023-03-16T03:41:34.938Z,-1.68
2023-03-16T03:41:53.993Z,-1.54
2023-03-16T03:42:25.873Z,-1.54
2023-03-16T03:42:42.412Z,-1.54
2023-03-16T03:43:14.655Z,-1.54
2023-03-16T03:43:35.504Z,-1.54
2023-03-16T03:44:01.840Z,-1.54
2023-03-16T03:44:34.784Z,-1.54
2023-03-16T03:45:06.572Z,-1.65
2023-03-16T03:45:35.222Z,-1.65
2023-03-16T03:45:54.422Z,-1.65
2023-03-16T03:46:26.753Z,-1.65
2023-03-16T03:46:57.963Z,-1.65
2023-03-16T03:47:29.840Z,-1.65
2023-03-16T03:48:01.816Z,-1.65
2023-03-16T03:48:34.441Z,-1.54
2023-03-16T03:49:05.865Z,-1.54
2023-03-16T03:49:36.197Z,-1.54
2023-03-16T03:49:53.863Z,-1.54
2023-03-16T03:50:26.785Z,-1.54
2023-03-16T03:50:42.415Z,-1.54
2023-03-16T03:51:13.814Z,-1.54
2023-03-16T03:51:35.886Z,-1.54
2023-03-16T03:52:01.903Z,-1.54
2023-03-16T03:52:34.847Z,-1.43
2023-03-16T03:53:05.857Z,-1.43
2023-03-16T03:53:34.974Z,-1.43
2023-03-16T03:53:53.861Z,-1.43
2023-03-16T03:54:25.885Z,-1.43
2023-03-16T03:54:42.403Z,-1.43
2023-03-16T03:55:14.205Z,-1.32
2023-03-16T03:55:35.673Z,-1.32
2023-03-16T03:56:02.572Z,-1.46
2023-03-16T03:56:34.369Z,-1.46
2023-03-16T03:57:06.188Z,-1.35
2023-03-16T03:57:34.999Z,-1.35
2023-03-16T03:57:53.843Z,-1.35
2023-03-16T03:58:25.891Z,-1.31
2023-03-16T03:58:42.456Z,-1.31
2023-03-16T03:59:14.599Z,-1.20
2023-03-16T03:59:35.479Z,-1.20
2023-03-16T04:00:04.170Z,-1.20
2023-03-16T04:00:34.490Z,-1.08
2023-03-16T04:01:09.543Z,-1.23
2023-03-16T04:01:34.898Z,-1.23
2023-03-16T04:01:53.947Z,-1.23
2023-03-16T04:02:26.886Z,-1.23
2023-03-16T04:02:58.146Z,-1.23
2023-03-16T04:03:30.012Z,-1.23
2023-03-16T04:04:01.911Z,-1.23
2023-03-16T04:04:35.003Z,-1.23
2023-03-16T04:05:06.191Z,-1.23
2023-03-16T04:05:35.794Z,-1.23
2023-03-16T04:05:54.216Z,-1.23
2023-03-16T04:06:25.879Z,-1.23
2023-03-16T04:06:42.376Z,-1.23
2023-03-16T04:07:13.835Z,-1.23
2023-03-16T04:07:35.512Z,-1.23
2023-03-16T04:08:01.887Z,-1.35
2023-03-16T04:08:34.416Z,-1.35
2023-03-16T04:09:05.889Z,-1.35
2023-03-16T04:09:34.974Z,-1.46
2023-03-16T04:09:53.881Z,-1.46
2023-03-16T04:10:26.568Z,-1.46
2023-03-16T04:10:42.412Z,-1.46
2023-03-16T04:11:13.881Z,-1.62
2023-03-16T04:11:35.479Z,-1.72
2023-03-16T04:12:02.617Z,-1.99
2023-03-16T04:12:34.577Z,-2.33
2023-03-16T04:13:05.913Z,-2.43
2023-03-16T04:13:35.023Z,-2.43
2023-03-16T04:13:53.911Z,-2.48
2023-03-16T04:14:25.917Z,-2.44
2023-03-16T04:14:42.432Z,-2.44
2023-03-16T04:15:15.251Z,-2.44
2023-03-16T04:15:35.527Z,-2.44
2023-03-16T04:16:02.998Z,-2.56
2023-03-16T04:16:34.641Z,-2.56
2023-03-16T04:17:05.868Z,-2.56
2023-03-16T04:17:35.042Z,-2.56
2023-03-16T04:17:53.874Z,-2.56
2023-03-16T04:18:26.664Z,-2.56
2023-03-16T04:18:57.912Z,-2.42
2023-03-16T04:19:29.849Z,-2.42
2023-03-16T04:20:03.559Z,-2.42
2023-03-16T04:20:34.510Z,-2.42
2023-03-16T04:21:05.912Z,-2.42
2023-03-16T04:21:35.308Z,-2.42
2023-03-16T04:21:53.910Z,-2.42
2023-03-16T04:22:25.896Z,-2.42
2023-03-16T04:22:42.456Z,-2.42
2023-03-16T04:23:13.840Z,-2.42
2023-03-16T04:23:35.803Z,-2.42
2023-03-16T04:24:01.896Z,-2.52
2023-03-16T04:24:34.750Z,-2.37
2023-03-16T04:25:06.230Z,-2.37
2023-03-16T04:25:35.097Z,-2.37
2023-03-16T04:25:54.129Z,-2.37
2023-03-16T04:26:25.873Z,-2.37
2023-03-16T04:26:42.449Z,-2.37
2023-03-16T04:27:13.897Z,-2.37
2023-03-16T04:27:35.461Z,-2.37
2023-03-16T04:28:03.014Z,-2.37
2023-03-16T04:28:34.443Z,-2.37
2023-03-16T04:29:05.884Z,-2.37
2023-03-16T04:29:35.082Z,-2.37
2023-03-16T04:29:53.862Z,-2.37
2023-03-16T04:30:26.835Z,-2.37
2023-03-16T04:30:42.502Z,-2.37
2023-03-16T04:31:14.781Z,-2.37
2023-03-16T04:31:35.497Z,-2.37
2023-03-16T04:32:01.878Z,-2.37
2023-03-16T04:32:34.594Z,-2.37
2023-03-16T04:33:06.155Z,-2.37
2023-03-16T04:33:35.161Z,-2.37
2023-03-16T04:33:53.877Z,-2.37
2023-03-16T04:34:26.577Z,-2.37
2023-03-16T04:34:57.937Z,-2.22
2023-03-16T04:35:30.200Z,-2.22
2023-03-16T04:36:01.892Z,-2.22
2023-03-16T04:36:34.398Z,-2.22
2023-03-16T04:37:05.898Z,-2.22
2023-03-16T04:37:35.409Z,-2.11
2023-03-16T04:37:53.927Z,-2.11
2023-03-16T04:38:26.174Z,-2.22
2023-03-16T04:38:58.152Z,-2.22
2023-03-16T04:39:29.933Z,-2.22
2023-03-16T04:40:03.314Z,-2.22
2023-03-16T04:40:34.429Z,-2.22
2023-03-16T04:41:05.937Z,-2.22
2023-03-16T04:41:35.316Z,-2.22
2023-03-16T04:41:53.887Z,-2.22
2023-03-16T04:42:25.924Z,-2.22
2023-03-16T04:42:42.392Z,-2.22
2023-03-16T04:43:13.920Z,-2.22
2023-03-16T04:43:35.623Z,-2.22
2023-03-16T04:44:02.784Z,-2.22
2023-03-16T04:44:34.421Z,-2.22
2023-03-16T04:45:06.497Z,-2.08
2023-03-16T04:45:35.094Z,-2.08
2023-03-16T04:45:54.342Z,-2.08
2023-03-16T04:46:26.151Z,-2.08
2023-03-16T04:46:42.661Z,-2.08
2023-03-16T04:47:14.710Z,-1.97
2023-03-16T04:47:35.684Z,-1.97
2023-03-16T04:48:01.919Z,-1.97
2023-03-16T04:48:34.421Z,-1.97
2023-03-16T04:49:05.932Z,-1.85
2023-03-16T04:49:35.299Z,-1.85
2023-03-16T04:49:53.896Z,-1.85
2023-03-16T04:50:27.355Z,-1.74
2023-03-16T04:50:57.923Z,-1.74
2023-03-16T04:51:29.903Z,-1.74
2023-03-16T04:52:01.896Z,-1.69
2023-03-16T04:52:34.400Z,-1.58
2023-03-16T04:53:05.924Z,-1.58
2023-03-16T04:53:35.898Z,-1.58
2023-03-16T04:53:53.948Z,-1.58
2023-03-16T04:54:25.927Z,-1.58
2023-03-16T04:54:42.513Z,-1.58
2023-03-16T04:55:14.152Z,-1.58
2023-03-16T04:55:35.888Z,-1.58
2023-03-16T04:56:01.925Z,-1.58
2023-03-16T04:56:34.447Z,-1.58
2023-03-16T04:57:05.982Z,-1.58
2023-03-16T04:57:35.083Z,-1.58
2023-03-16T04:57:53.918Z,-1.58
2023-03-16T04:58:25.927Z,-1.58
2023-03-16T04:58:42.393Z,-1.58
2023-03-16T04:59:17.169Z,-1.58
2023-03-16T04:59:35.604Z,-1.47
2023-03-16T05:00:04.410Z,-1.47
2023-03-16T05:00:34.852Z,-1.62
2023-03-16T05:01:05.922Z,-1.62
2023-03-16T05:01:35.171Z,-1.62
2023-03-16T05:01:54.087Z,-1.50
2023-03-16T05:02:25.602Z,-1.50
2023-03-16T05:02:42.027Z,-1.50
2023-03-16T05:03:14.407Z,-1.50
2023-03-16T05:03:34.968Z,-1.50
2023-03-16T05:04:01.504Z,-1.50
2023-03-16T05:04:33.514Z,-1.39
2023-03-16T05:05:05.878Z,-1.39
2023-03-16T05:05:34.729Z,-1.39
2023-03-16T05:05:53.624Z,-1.34
2023-03-16T05:06:28.482Z,-1.34
2023-03-16T05:06:58.198Z,-1.34
2023-03-16T05:07:34.306Z,-1.23
2023-03-16T05:08:02.009Z,-1.23
2023-03-16T05:08:34.202Z,-1.12
2023-03-16T05:09:05.874Z,-1.27
2023-03-16T05:09:36.056Z,-1.27
2023-03-16T05:09:53.913Z,-1.27
2023-03-16T05:10:26.528Z,-1.27
2023-03-16T05:10:42.658Z,-1.27
2023-03-16T05:11:13.953Z,-1.17
2023-03-16T05:11:35.697Z,-1.17
2023-03-16T05:12:01.972Z,-1.06
2023-03-16T05:12:33.878Z,-1.06
2023-03-16T05:13:05.946Z,-1.21
2023-03-16T05:13:34.459Z,-1.16
2023-03-16T05:13:53.913Z,-1.05
2023-03-16T05:14:25.907Z,-1.05
2023-03-16T05:14:42.407Z,-1.20
2023-03-16T05:15:14.959Z,-1.08
2023-03-16T05:15:35.512Z,-1.08
2023-03-16T05:16:03.177Z,-1.08
2023-03-16T05:16:33.930Z,-.97
2023-03-16T05:17:05.898Z,-1.12
2023-03-16T05:17:34.421Z,-1.12
2023-03-16T05:17:53.917Z,-1.02
2023-03-16T05:18:25.937Z,-1.02
2023-03-16T05:18:42.408Z,-1.02
2023-03-16T05:19:15.186Z,-.97
2023-03-16T05:19:35.494Z,-1.12
2023-03-16T05:20:03.435Z,-1.12
2023-03-16T05:20:33.915Z,-1.01
2023-03-16T05:21:05.919Z,-1.01
2023-03-16T05:21:34.482Z,-1.01
2023-03-16T05:21:53.929Z,-1.01
2023-03-16T05:22:26.720Z,-1.01
2023-03-16T05:22:57.900Z,-1.01
2023-03-16T05:23:30.186Z,-1.05
2023-03-16T05:24:02.018Z,-1.05
2023-03-16T05:24:33.886Z,-1.05
2023-03-16T05:25:06.352Z,-1.05
2023-03-16T05:25:35.299Z,-1.05
2023-03-16T05:25:54.184Z,-1.05
2023-03-16T05:26:25.950Z,-1.05
2023-03-16T05:26:42.411Z,-1.05
2023-03-16T05:27:13.976Z,-1.05
2023-03-16T05:27:35.558Z,-1.05
2023-03-16T05:28:02.026Z,-1.05
2023-03-16T05:28:33.923Z,-1.01
2023-03-16T05:29:05.972Z,-1.01
2023-03-16T05:29:34.449Z,-1.01
2023-03-16T05:29:53.905Z,-1.01
2023-03-16T05:30:26.798Z,-1.01
2023-03-16T05:30:42.424Z,-1.01
2023-03-16T05:31:14.042Z,-1.01
2023-03-16T05:31:35.557Z,-1.01
2023-03-16T05:32:03.034Z,-1.01
2023-03-16T05:32:34.820Z,-1.01
2023-03-16T05:33:06.210Z,-1.01
2023-03-16T05:33:34.442Z,-1.01
2023-03-16T05:33:54.002Z,-1.01
2023-03-16T05:34:26.130Z,-1.01
2023-03-16T05:34:42.531Z,-1.01
2023-03-16T05:35:17.157Z,-1.01
2023-03-16T05:35:35.600Z,-1.01
2023-03-16T05:36:02.238Z,-1.01
2023-03-16T05:36:34.058Z,-1.01
2023-03-16T05:37:05.957Z,-1.01
2023-03-16T05:37:34.585Z,-1.01
2023-03-16T05:37:54.065Z,-1.01
2023-03-16T05:38:26.655Z,-1.01
2023-03-16T05:38:58.050Z,-1.12
2023-03-16T05:39:30.476Z,-1.12
2023-03-16T05:40:03.635Z,-1.12
2023-03-16T05:40:34.557Z,-1.12
2023-03-16T05:41:06.323Z,-1.12
2023-03-16T05:41:35.523Z,-1.12
2023-03-16T05:41:54.073Z,-1.12
2023-03-16T05:42:26.124Z,-1.12
2023-03-16T05:42:42.543Z,-1.12
2023-03-16T05:43:14.557Z,-1.12
2023-03-16T05:43:35.579Z,-1.12
2023-03-16T05:44:02.201Z,-1.12
2023-03-16T05:44:34.480Z,-1.12
2023-03-16T05:45:07.026Z,-1.12
2023-03-16T05:45:34.561Z,-1.12
2023-03-16T05:45:54.298Z,-1.12
2023-03-16T05:46:26.066Z,-1.12
2023-03-16T05:46:42.640Z,-1.12
2023-03-16T05:47:14.560Z,-1.12
2023-03-16T05:47:35.585Z,-1.12
2023-03-16T05:48:02.807Z,-1.12
2023-03-16T05:48:34.028Z,-1.12
2023-03-16T05:49:06.049Z,-1.01
2023-03-16T05:49:34.599Z,-1.01
2023-03-16T05:49:54.082Z,-1.01
2023-03-16T05:50:27.349Z,-1.01
2023-03-16T05:50:42.608Z,-1.01
2023-03-16T05:51:15.313Z,-1.01
2023-03-16T05:51:35.587Z,-1.01
2023-03-16T05:52:02.213Z,-1.01
2023-03-16T05:52:34.168Z,-1.12
2023-03-16T05:53:06.070Z,-1.12
2023-03-16T05:53:35.124Z,-1.12
2023-03-16T05:53:54.022Z,-1.12
2023-03-16T05:54:26.716Z,-1.01
2023-03-16T05:54:58.214Z,-1.01
2023-03-16T05:55:30.655Z,-.90
2023-03-16T05:56:02.200Z,-.90
2023-03-16T05:56:34.048Z,-.90
2023-03-16T05:57:06.056Z,-.90
2023-03-16T05:57:35.803Z,-.90
2023-03-16T05:57:54.135Z,-1.01
2023-03-16T05:58:26.113Z,-1.01
2023-03-16T05:58:42.649Z,-1.01
2023-03-16T05:59:14.598Z,-1.01
2023-03-16T05:59:35.611Z,-1.01
2023-03-16T06:00:03.981Z,-1.01
2023-03-16T06:00:34.053Z,-1.01
2023-03-16T06:01:06.044Z,-1.01
2023-03-16T06:01:34.607Z,-1.01
2023-03-16T06:01:54.097Z,-1.01
2023-03-16T06:02:26.157Z,-1.01
2023-03-16T06:02:42.663Z,-1.01
2023-03-16T06:03:14.611Z,-1.01
2023-03-16T06:03:35.612Z,-1.01